Airfield :
LOGIN :

Register | Disclaimer

   EN    FR    IT 

 










Legend :    VFR   Marginal VFR   IFR   Intensive IFR   Very Intensive IFR
Visi :
Ceiling :
>= 8 km
>= 3000ft
5 to 8 km
1000 to 3000 ft
1500m to 5 km
500 to 1000 ft
800 to 1500m
200 to 500 ft
< 800m
< 200 ft
Symbols :   Thunderstorms  Fog  Heavy snow  Heavy precipitations  Wind > 20 kt
SIGMETs :     Misc.  Thunderstorms  Icing  Turbulence  Mountain Waves  Volcanic Ashes







- Airport Elevation : 978 ft
- IATA code : LNZ


LOWL - Linz

CURRENT METAR :
  • 291050Z 31006KT 260V350 9999 FEW020 SCT024 10/04 Q1019 NOSIG

EXPIRED METARs :
  • 291020Z 29006KT 210V340 9999 FEW018 SCT023 09/04 Q1019 NOSIG
  • 290950Z 31005KT 230V020 9999 FEW018 BKN023 08/03 Q1019 NOSIG
  • 290920Z 32006KT 260V360 9999 FEW016 BKN026 07/03 Q1020 NOSIG
  • 290850Z 31008KT 280V340 9999 FEW016 BKN024 07/02 Q1020 NOSIG
  • 290820Z 31008KT 9999 FEW018 BKN022 06/02 Q1020 NOSIG

TAF TAF LOWL
Valid from the 29 at 06:00 until the 30 at 06:00 UTC


290515Z 2906/3006 28005KT 9999 SCT025 BKN080 TX11/2916Z TN01/3004Z
TEMPO 2906/2910 28010KT 7000 -SHRA BKN020
BECMG 2916/2918 VRB02KT CAVOK
TEMPO 3002/3006 0500 BCFG NSC
No reported NOTAMs for that airfield.



MET'MAP, your aeronautical weather chart ! - Copyright ORBIFLY December 2007 - Disclaimer

ORBIFLY MET'MAP TEAM :

Programming & Development : Alexandra Zaïnal
Concept & Development : Baudouin d'Aumeries
Co-Development & Prog : Marc-Olivier Méhu
Technical & hardware support : Manuel Goepfert

Contact : metmap@orbifly.com




SOURCES & CREDITS :

   NOAA